createdAt,value
2023-01-03T00:02:25.025Z,20.10
2023-01-03T00:04:54.366Z,20.23
2023-01-03T00:07:34.032Z,20.63
2023-01-03T00:10:04.954Z,19.90
2023-01-03T00:12:37.759Z,20.13
2023-01-03T00:15:07.136Z,20.30
2023-01-03T00:17:37.670Z,20.50
2023-01-03T00:20:05.461Z,20.67
2023-01-03T00:22:33.970Z,20.97
2023-01-03T00:25:03.720Z,20.07
2023-01-03T00:27:31.830Z,19.60
2023-01-03T00:29:58.747Z,20.60
2023-01-03T00:32:27.903Z,17.97
2023-01-03T00:34:58.907Z,20.03
2023-01-03T00:37:31.750Z,19.37
2023-01-03T00:40:00.127Z,16.70
2023-01-03T00:42:31.543Z,16.77
2023-01-03T00:45:01.215Z,17.80
2023-01-03T00:47:30.864Z,19.03
2023-01-03T00:50:01.555Z,19.83
2023-01-03T00:52:30.764Z,17.90
2023-01-03T00:55:00.232Z,18.20
2023-01-03T00:57:32.155Z,17.97
2023-01-03T00:59:59.254Z,18.37
2023-01-03T01:02:28.761Z,17.70
2023-01-03T01:04:56.380Z,17.90
2023-01-03T01:07:26.223Z,17.13
2023-01-03T01:09:54.758Z,18.33
2023-01-03T01:12:24.139Z,18.13
2023-01-03T01:14:54.694Z,17.40
2023-01-03T01:17:24.252Z,17.70
2023-01-03T01:19:51.214Z,18.37
2023-01-03T01:22:19.927Z,17.77
2023-01-03T01:24:49.429Z,18.37
2023-01-03T01:30:12.124Z,17.10
2023-01-03T01:32:40.360Z,17.77
2023-01-03T01:35:10.636Z,18.20
2023-01-03T01:37:38.791Z,16.80
2023-01-03T01:40:11.423Z,19.17
2023-01-03T01:42:57.084Z,22.87
2023-01-03T01:45:32.739Z,23.60
2023-01-03T01:48:12.567Z,32.50
2023-01-03T01:50:55.360Z,25.07
2023-01-03T01:53:27.471Z,20.13
2023-01-03T01:59:11.594Z,32.93
2023-01-03T02:01:42.078Z,21.27
2023-01-03T02:04:32.375Z,23.17
2023-01-03T02:07:05.275Z,50.50
2023-01-03T02:09:36.539Z,63.87
2023-01-03T02:12:50.811Z,32.00
2023-01-03T02:15:52.019Z,97.27
2023-01-03T02:18:50.232Z,45.57
2023-01-03T02:21:37.418Z,28.93
2023-01-03T02:24:51.178Z,24.60
2023-01-03T02:27:36.705Z,46.60
2023-01-03T02:30:12.060Z,32.13
2023-01-03T02:33:07.960Z,25.40
2023-01-03T02:35:55.587Z,21.97
2023-01-03T02:39:03.671Z,32.97
2023-01-03T02:42:20.315Z,18.60
2023-01-03T02:45:19.484Z,16.47
2023-01-03T02:47:57.183Z,23.23
2023-01-03T02:50:46.707Z,21.87
2023-01-03T02:53:33.309Z,17.97
2023-01-03T02:56:06.167Z,22.07
2023-01-03T02:58:49.076Z,16.37
2023-01-03T03:01:18.892Z,17.43
2023-01-03T03:03:47.062Z,17.27
2023-01-03T03:06:32.670Z,17.10
2023-01-03T03:09:07.364Z,17.13
2023-01-03T03:11:58.376Z,15.10
2023-01-03T03:14:52.384Z,15.10
2023-01-03T03:17:32.776Z,15.97
2023-01-03T03:20:22.781Z,18.03
2023-01-03T03:23:15.740Z,14.87
2023-01-03T03:25:55.918Z,14.80
2023-01-03T03:28:38.997Z,15.00
2023-01-03T03:31:28.763Z,15.20
2023-01-03T03:34:09.199Z,14.90
2023-01-03T03:37:03.343Z,15.43
2023-01-03T03:39:51.292Z,15.07
2023-01-03T03:43:06.261Z,14.37
2023-01-03T03:46:11.329Z,15.97
2023-01-03T03:49:19.615Z,15.80
2023-01-03T03:51:50.167Z,16.53
2023-01-03T03:54:29.181Z,14.40
2023-01-03T03:57:07.323Z,15.50
2023-01-03T03:59:37.111Z,15.17
2023-01-03T04:02:08.208Z,13.63
2023-01-03T04:04:48.470Z,15.73
2023-01-03T04:07:16.731Z,15.77
2023-01-03T04:09:46.100Z,16.40
2023-01-03T04:12:14.146Z,16.97
2023-01-03T04:14:44.267Z,18.17
2023-01-03T04:17:12.292Z,17.27
2023-01-03T04:19:41.303Z,17.47
2023-01-03T04:22:11.724Z,18.10
2023-01-03T04:24:38.645Z,16.93
2023-01-03T04:27:06.883Z,16.13
2023-01-03T04:29:38.982Z,15.13
2023-01-03T04:32:10.787Z,16.23
2023-01-03T04:34:40.956Z,15.70
2023-01-03T04:37:07.966Z,15.83
2023-01-03T04:39:37.539Z,16.37
2023-01-03T04:42:30.085Z,16.37
2023-01-03T04:44:57.176Z,16.70
2023-01-03T04:47:27.439Z,16.53
2023-01-03T04:49:55.677Z,14.97
2023-01-03T04:55:08.484Z,15.53
2023-01-03T04:57:37.068Z,16.00
2023-01-03T05:00:06.583Z,16.97
2023-01-03T05:02:36.574Z,17.07
2023-01-03T05:05:14.026Z,17.97
2023-01-03T05:07:44.099Z,17.63
2023-01-03T05:10:11.113Z,18.67
2023-01-03T05:12:39.047Z,18.63
2023-01-03T05:15:08.744Z,18.07
2023-01-03T05:17:35.742Z,18.37
2023-01-03T05:20:23.204Z,17.30
2023-01-03T05:23:11.268Z,16.97
2023-01-03T05:25:54.282Z,15.57
2023-01-03T05:28:31.642Z,17.80
2023-01-03T05:30:59.804Z,18.23
2023-01-03T05:33:30.081Z,18.80
2023-01-03T05:38:43.066Z,20.70
2023-01-03T05:41:12.242Z,19.97
2023-01-03T05:43:42.208Z,21.53
2023-01-03T05:46:12.478Z,19.43
2023-01-03T05:48:40.855Z,18.97
2023-01-03T05:51:09.193Z,21.03
2023-01-03T05:53:37.967Z,22.00
2023-01-03T05:56:06.689Z,21.83
2023-01-03T05:58:33.745Z,22.77
2023-01-03T06:01:07.718Z,21.40
2023-01-03T06:03:36.337Z,18.57
2023-01-03T06:06:12.717Z,19.07
2023-01-03T06:08:40.450Z,20.33
2023-01-03T06:11:12.526Z,17.57
2023-01-03T06:13:40.847Z,19.20
2023-01-03T06:16:41.736Z,21.63
2023-01-03T06:19:08.908Z,21.30
2023-01-03T06:21:37.672Z,17.87
2023-01-03T06:24:07.627Z,17.63
2023-01-03T06:26:35.582Z,21.20
2023-01-03T06:29:07.662Z,21.47
2023-01-03T06:31:36.875Z,21.40
2023-01-03T06:34:04.355Z,26.73
2023-01-03T06:36:37.135Z,26.10
2023-01-03T06:39:07.765Z,24.07
2023-01-03T06:41:37.536Z,23.37
2023-01-03T06:44:07.015Z,22.40
2023-01-03T06:46:54.238Z,22.10
2023-01-03T06:49:43.441Z,22.43
2023-01-03T06:52:37.384Z,22.37
2023-01-03T06:55:10.427Z,20.53
2023-01-03T06:57:40.179Z,19.27
2023-01-03T07:00:09.706Z,21.10
2023-01-03T07:02:37.135Z,19.87
2023-01-03T07:05:07.956Z,16.90
2023-01-03T07:07:38.205Z,18.47
2023-01-03T07:10:08.012Z,16.60
2023-01-03T07:12:54.226Z,15.40
2023-01-03T07:15:23.224Z,13.93
2023-01-03T07:17:56.096Z,14.20
2023-01-03T07:20:24.231Z,16.43
2023-01-03T07:22:55.350Z,15.73
2023-01-03T07:25:23.459Z,19.23
2023-01-03T07:28:05.831Z,15.97
2023-01-03T07:30:46.926Z,16.13
2023-01-03T07:33:19.002Z,16.73
2023-01-03T07:35:46.891Z,18.00
2023-01-03T07:38:16.385Z,17.43
2023-01-03T07:40:47.219Z,16.43
2023-01-03T07:43:34.107Z,16.93
2023-01-03T07:46:25.100Z,16.60
2023-01-03T07:48:57.488Z,15.87
2023-01-03T07:51:24.539Z,16.27
2023-01-03T07:54:00.637Z,15.17
2023-01-03T07:56:33.028Z,15.53
2023-01-03T07:59:05.233Z,15.83
2023-01-03T08:01:34.569Z,17.17
2023-01-03T08:04:05.462Z,25.77
2023-01-03T08:06:36.684Z,29.70
2023-01-03T08:09:28.698Z,27.73
2023-01-03T08:12:17.791Z,23.20
2023-01-03T08:14:47.754Z,22.77
2023-01-03T08:17:18.994Z,21.77
2023-01-03T08:19:49.913Z,21.97
2023-01-03T08:22:18.417Z,23.00
2023-01-03T08:27:31.833Z,20.27
2023-01-03T08:29:58.879Z,18.93
2023-01-03T08:32:27.547Z,18.77
2023-01-03T08:34:55.098Z,18.17
2023-01-03T08:37:23.791Z,17.93
2023-01-03T08:39:55.744Z,17.90
2023-01-03T08:42:30.244Z,18.60
2023-01-03T08:45:10.080Z,18.27
2023-01-03T08:47:42.111Z,19.87
2023-01-03T08:50:16.922Z,19.37
2023-01-03T08:52:49.188Z,20.70
2023-01-03T08:55:16.332Z,21.30
2023-01-03T08:57:43.832Z,19.87
2023-01-03T09:00:16.353Z,21.73
2023-01-03T09:02:47.355Z,21.03
2023-01-03T09:05:15.795Z,21.90
2023-01-03T09:07:43.301Z,21.03
2023-01-03T09:10:19.096Z,20.70
2023-01-03T09:12:47.630Z,22.03
2023-01-03T09:15:18.506Z,21.40
2023-01-03T09:17:50.030Z,19.43
2023-01-03T09:20:19.235Z,20.07
2023-01-03T09:22:50.194Z,20.03
2023-01-03T09:25:22.323Z,19.27
2023-01-03T09:27:50.643Z,20.00
2023-01-03T09:30:19.932Z,19.83
2023-01-03T09:32:56.068Z,17.37
2023-01-03T09:35:28.714Z,16.37
2023-01-03T09:37:56.722Z,15.83
2023-01-03T09:40:24.318Z,16.23
2023-01-03T09:43:11.218Z,17.27
2023-01-03T09:45:43.748Z,17.03
2023-01-03T09:48:20.140Z,16.70
2023-01-03T09:51:17.139Z,16.33
2023-01-03T09:53:59.211Z,17.80
2023-01-03T09:56:48.082Z,15.93
2023-01-03T09:59:38.231Z,18.50
2023-01-03T10:03:03.574Z,14.27
2023-01-03T10:05:49.216Z,17.10
2023-01-03T10:08:24.060Z,14.70
2023-01-03T10:11:11.180Z,13.70
2023-01-03T10:14:16.729Z,14.57
2023-01-03T10:17:00.525Z,14.07
2023-01-03T10:19:49.205Z,14.47
2023-01-03T10:22:28.175Z,14.03
2023-01-03T10:25:10.161Z,14.70
2023-01-03T10:27:55.884Z,13.17
2023-01-03T10:31:07.547Z,12.97
2023-01-03T10:33:46.423Z,14.17
2023-01-03T10:36:18.998Z,13.97
2023-01-03T10:38:53.273Z,14.63
2023-01-03T10:41:45.638Z,13.47
2023-01-03T10:44:34.967Z,12.13
2023-01-03T10:47:15.509Z,12.60
2023-01-03T10:49:49.046Z,11.73
2023-01-03T10:52:31.746Z,12.00
2023-01-03T10:55:19.188Z,11.23
2023-01-03T10:57:59.902Z,11.70
2023-01-03T11:00:39.857Z,12.40
2023-01-03T11:03:19.408Z,11.70
2023-01-03T11:06:09.627Z,11.83
2023-01-03T11:08:47.317Z,10.90
2023-01-03T11:11:41.201Z,10.30
2023-01-03T11:14:27.404Z,10.47
2023-01-03T11:19:41.263Z,8.60
2023-01-03T11:22:19.663Z,10.70
2023-01-03T11:25:09.856Z,8.80
2023-01-03T11:28:16.531Z,8.10
2023-01-03T11:31:13.378Z,7.37
2023-01-03T11:34:12.711Z,6.77
2023-01-03T11:36:54.500Z,8.90
2023-01-03T11:39:36.532Z,6.00
2023-01-03T11:42:16.212Z,6.67
2023-01-03T11:44:54.995Z,6.73
2023-01-03T11:48:00.761Z,7.00
2023-01-03T11:51:00.890Z,7.60
2023-01-03T11:53:40.875Z,6.60
2023-01-03T11:56:31.589Z,6.30
2023-01-03T11:59:36.157Z,7.17
2023-01-03T12:02:18.390Z,7.37
2023-01-03T12:05:18.984Z,6.73
2023-01-03T12:08:36.194Z,7.43
2023-01-03T12:11:37.814Z,6.20
2023-01-03T12:14:50.876Z,5.83
2023-01-03T12:17:49.933Z,6.23
2023-01-03T12:20:37.426Z,7.67
2023-01-03T12:23:06.863Z,8.70
2023-01-03T12:25:47.105Z,7.77
2023-01-03T12:28:35.814Z,8.20
2023-01-03T12:31:32.280Z,9.17
2023-01-03T12:34:39.672Z,6.43
2023-01-03T12:37:40.217Z,7.23
2023-01-03T12:40:41.618Z,6.87
2023-01-03T12:43:31.361Z,6.47
2023-01-03T12:46:10.286Z,6.57
2023-01-03T12:49:59.317Z,6.90
2023-01-03T12:52:30.151Z,5.93
2023-01-03T12:55:47.051Z,7.60
2023-01-03T12:58:50.810Z,6.20
2023-01-03T13:01:47.133Z,6.40
2023-01-03T13:04:41.837Z,5.73
2023-01-03T13:07:29.856Z,6.20
2023-01-03T13:10:05.260Z,6.07
2023-01-03T13:12:37.487Z,6.57
2023-01-03T13:15:38.656Z,7.60
2023-01-03T13:18:28.702Z,5.40
2023-01-03T13:20:56.381Z,6.40
2023-01-03T13:24:11.577Z,5.20
2023-01-03T13:26:40.668Z,5.37
2023-01-03T13:29:58.795Z,6.97
2023-01-03T13:32:37.915Z,5.37
2023-01-03T13:35:37.492Z,5.47
2023-01-03T13:38:25.176Z,5.03
2023-01-03T13:41:19.644Z,4.87
2023-01-03T13:43:58.470Z,5.07
2023-01-03T13:46:31.491Z,5.20
2023-01-03T13:49:10.526Z,5.00
2023-01-03T13:51:51.831Z,5.63
2023-01-03T13:54:18.855Z,6.00
2023-01-03T13:57:05.731Z,4.47
2023-01-03T13:59:47.486Z,4.90
2023-01-03T14:02:36.598Z,5.83
2023-01-03T14:05:15.725Z,4.93
2023-01-03T14:08:01.639Z,6.10
2023-01-03T14:10:56.999Z,6.40
2023-01-03T14:13:55.942Z,7.47
2023-01-03T14:16:55.479Z,5.63
2023-01-03T14:19:37.048Z,6.00
2023-01-03T14:22:30.943Z,6.93
2023-01-03T14:24:59.315Z,6.17
2023-01-03T14:27:41.211Z,6.53
2023-01-03T14:30:31.124Z,5.80
2023-01-03T14:32:59.642Z,7.40
2023-01-03T14:35:41.555Z,5.40
2023-01-03T14:38:30.575Z,5.60
2023-01-03T14:40:58.207Z,6.17
2023-01-03T14:43:31.259Z,7.20
2023-01-03T14:46:06.268Z,5.93
2023-01-03T14:48:38.419Z,6.00
2023-01-03T14:51:07.584Z,8.13
2023-01-03T14:53:37.612Z,6.33
2023-01-03T14:56:06.979Z,7.13
2023-01-03T14:58:40.699Z,6.10
2023-01-03T15:01:16.812Z,5.87
2023-01-03T15:03:48.330Z,7.00
2023-01-03T15:06:30.248Z,6.23
2023-01-03T15:09:12.766Z,6.87
2023-01-03T15:12:03.692Z,6.67
2023-01-03T15:14:39.112Z,6.63
2023-01-03T15:17:21.465Z,7.57
2023-01-03T15:19:55.823Z,6.10
2023-01-03T15:22:27.008Z,6.40
2023-01-03T15:25:11.457Z,8.00
2023-01-03T15:27:38.506Z,7.60
2023-01-03T15:30:19.171Z,8.80
2023-01-03T15:33:04.442Z,8.90
2023-01-03T15:35:54.345Z,9.13
2023-01-03T15:38:34.584Z,11.70
2023-01-03T15:41:49.054Z,11.43
2023-01-03T15:44:28.529Z,13.10
2023-01-03T15:47:00.729Z,10.97
2023-01-03T15:49:38.150Z,10.37
2023-01-03T15:52:17.067Z,11.40
2023-01-03T15:54:49.519Z,10.37
2023-01-03T15:57:32.241Z,9.53
2023-01-03T16:02:47.693Z,10.53
2023-01-03T16:05:22.681Z,10.87
2023-01-03T16:07:55.459Z,10.47
2023-01-03T16:10:27.241Z,10.07
2023-01-03T16:13:01.598Z,9.93
2023-01-03T16:15:32.602Z,10.97
2023-01-03T16:18:01.787Z,9.90
2023-01-03T16:20:33.333Z,11.23
2023-01-03T16:23:18.093Z,12.47
2023-01-03T16:25:46.136Z,12.07
2023-01-03T16:28:16.638Z,10.80
2023-01-03T16:30:47.187Z,9.60
2023-01-03T16:33:28.376Z,9.60
2023-01-03T16:35:57.400Z,14.00
2023-01-03T16:38:34.061Z,16.00
2023-01-03T16:41:01.127Z,17.03
2023-01-03T16:43:30.927Z,13.20
2023-01-03T16:45:59.884Z,13.97
2023-01-03T16:48:38.161Z,12.90
2023-01-03T16:51:06.364Z,12.67
2023-01-03T16:53:37.084Z,11.90
2023-01-03T16:56:07.431Z,12.40
2023-01-03T16:58:37.249Z,11.80
2023-01-03T17:01:05.553Z,11.87
2023-01-03T17:03:39.551Z,11.53
2023-01-03T17:06:38.065Z,12.50
2023-01-03T17:09:20.957Z,12.57
2023-01-03T17:11:49.251Z,12.70
2023-01-03T17:14:21.276Z,12.43
2023-01-03T17:17:01.141Z,13.23
2023-01-03T17:22:23.070Z,13.60
2023-01-03T17:24:54.672Z,12.83
2023-01-03T17:27:32.535Z,13.63
2023-01-03T17:30:04.992Z,13.60
2023-01-03T17:32:38.651Z,14.40
2023-01-03T17:35:20.953Z,13.97
2023-01-03T17:40:42.115Z,14.17
2023-01-03T17:43:18.778Z,14.87
2023-01-03T17:46:23.639Z,15.23
2023-01-03T17:49:12.229Z,16.63
2023-01-03T17:51:43.190Z,16.27
2023-01-03T17:54:16.465Z,15.77
2023-01-03T17:56:47.963Z,16.30
2023-01-03T17:59:18.047Z,15.60
2023-01-03T18:01:47.462Z,15.90
2023-01-03T18:04:19.441Z,15.13
2023-01-03T18:07:00.821Z,15.70
2023-01-03T18:09:58.259Z,15.53
2023-01-03T18:12:34.548Z,15.83
2023-01-03T18:15:04.184Z,16.07
2023-01-03T18:17:34.963Z,17.50
2023-01-03T18:20:12.205Z,16.70
2023-01-03T18:22:41.943Z,17.50
2023-01-03T18:25:27.092Z,15.63
2023-01-03T18:28:06.788Z,16.13
2023-01-03T18:30:38.986Z,17.37
2023-01-03T18:33:07.638Z,17.03
2023-01-03T18:35:38.716Z,17.17
2023-01-03T18:38:18.606Z,17.63
2023-01-03T18:41:21.265Z,18.23
2023-01-03T18:43:53.721Z,18.40
2023-01-03T18:46:24.378Z,18.43
2023-01-03T18:48:52.678Z,17.43
2023-01-03T18:51:24.477Z,18.87
2023-01-03T18:53:56.314Z,18.33
2023-01-03T18:56:28.329Z,17.67
2023-01-03T18:59:02.137Z,17.93
2023-01-03T19:01:30.275Z,17.63
2023-01-03T19:03:58.816Z,17.07
2023-01-03T19:06:39.421Z,17.67
2023-01-03T19:09:29.519Z,28.77
2023-01-03T19:11:58.308Z,22.20
2023-01-03T19:14:29.214Z,17.47
2023-01-03T19:16:58.713Z,17.60
2023-01-03T19:19:26.008Z,17.17
2023-01-03T19:21:57.185Z,17.20
2023-01-03T19:24:51.217Z,16.20
2023-01-03T19:27:29.497Z,17.07
2023-01-03T19:30:01.523Z,18.30
2023-01-03T19:32:31.893Z,18.53
2023-01-03T19:35:00.364Z,18.73
2023-01-03T19:37:28.643Z,19.13
2023-01-03T19:39:56.078Z,19.07
2023-01-03T19:42:46.904Z,18.00
2023-01-03T19:45:43.031Z,18.67
2023-01-03T19:48:25.512Z,18.43
2023-01-03T19:50:56.617Z,18.37
2023-01-03T19:53:34.817Z,19.07
2023-01-03T19:56:12.783Z,19.43
2023-01-03T19:58:50.468Z,17.87
2023-01-03T20:01:27.547Z,17.43
2023-01-03T20:03:58.677Z,18.10
2023-01-03T20:06:29.251Z,17.07
2023-01-03T20:08:59.245Z,17.33
2023-01-03T20:11:27.863Z,16.67
2023-01-03T20:13:59.284Z,16.27
2023-01-03T20:16:39.512Z,16.90
2023-01-03T20:19:19.398Z,16.80
2023-01-03T20:21:58.931Z,18.80
2023-01-03T20:24:33.030Z,18.90
2023-01-03T20:27:01.017Z,19.17
2023-01-03T20:29:30.424Z,18.07
2023-01-03T20:32:02.482Z,17.43
2023-01-03T20:34:33.679Z,17.77
2023-01-03T20:37:05.883Z,16.90
2023-01-03T20:39:41.212Z,17.83
2023-01-03T20:42:34.617Z,17.37
2023-01-03T20:45:01.867Z,17.50
2023-01-03T20:47:31.200Z,17.77
2023-01-03T20:50:09.038Z,17.27
2023-01-03T20:52:36.330Z,18.40
2023-01-03T20:55:04.709Z,17.30
2023-01-03T20:57:33.648Z,18.57
2023-01-03T21:00:01.794Z,18.53
2023-01-03T21:02:33.805Z,20.53
2023-01-03T21:05:01.634Z,20.03
2023-01-03T21:07:50.514Z,20.07
2023-01-03T21:10:25.118Z,19.80
2023-01-03T21:12:54.650Z,19.53
2023-01-03T21:15:24.179Z,19.30
2023-01-03T21:17:54.760Z,20.33
2023-01-03T21:20:28.335Z,19.73
2023-01-03T21:22:58.456Z,19.53
2023-01-03T21:25:32.927Z,20.47
2023-01-03T21:28:05.420Z,22.00
2023-01-03T21:30:33.842Z,20.07
2023-01-03T21:33:10.008Z,20.27
2023-01-03T21:35:41.549Z,20.47
2023-01-03T21:38:13.879Z,19.93
2023-01-03T21:40:45.075Z,19.57
2023-01-03T21:43:15.070Z,19.53
2023-01-03T21:45:50.739Z,19.47
2023-01-03T21:48:18.967Z,20.50
2023-01-03T21:50:49.904Z,20.17
2023-01-03T21:53:20.586Z,20.43
2023-01-03T21:55:48.629Z,18.63
2023-01-03T21:58:19.114Z,19.10
2023-01-03T22:00:47.097Z,21.10
2023-01-03T22:03:35.269Z,19.83
2023-01-03T22:06:31.185Z,20.10
2023-01-03T22:09:00.043Z,21.67
2023-01-03T22:11:30.451Z,20.27
2023-01-03T22:14:00.662Z,19.33
2023-01-03T22:16:29.663Z,19.93
2023-01-03T22:18:59.693Z,19.27
2023-01-03T22:21:27.379Z,21.13
2023-01-03T22:23:58.472Z,21.73
2023-01-03T22:26:34.185Z,20.37
2023-01-03T22:29:01.745Z,20.13
2023-01-03T22:31:30.086Z,20.43
2023-01-03T22:33:57.339Z,20.73
2023-01-03T22:36:25.180Z,20.43
2023-01-03T22:38:52.831Z,21.53
2023-01-03T22:41:24.173Z,19.80
2023-01-03T22:43:52.849Z,20.80
2023-01-03T22:46:21.411Z,19.87
2023-01-03T22:48:49.758Z,19.30
2023-01-03T22:51:17.999Z,19.40
2023-01-03T22:53:50.205Z,21.33
2023-01-03T22:56:20.309Z,20.10
2023-01-03T22:58:51.281Z,20.13
2023-01-03T23:01:30.360Z,21.77
2023-01-03T23:04:01.323Z,20.57
2023-01-03T23:06:31.470Z,22.07
2023-01-03T23:12:09.369Z,23.97
2023-01-03T23:14:36.389Z,22.60
2023-01-03T23:17:25.435Z,22.03
2023-01-03T23:19:54.292Z,22.53
2023-01-03T23:22:22.435Z,23.10
2023-01-03T23:24:51.282Z,22.63
2023-01-03T23:27:21.281Z,22.13
2023-01-03T23:29:49.492Z,24.87
2023-01-03T23:32:16.815Z,23.63
2023-01-03T23:37:30.820Z,22.70
2023-01-03T23:40:03.555Z,22.47
2023-01-03T23:42:33.567Z,23.53
2023-01-03T23:45:01.295Z,21.77
2023-01-03T23:47:28.508Z,24.43
2023-01-03T23:49:55.588Z,22.20
2023-01-03T23:52:23.648Z,24.60
2023-01-03T23:54:56.161Z,21.40
2023-01-03T23:57:29.087Z,22.03
2023-01-03T23:59:59.343Z,23.60
